createdAt,value
2019-03-30T00:00:28.188Z,9.40
2019-03-30T00:02:56.728Z,9.20
2019-03-30T00:05:25.216Z,9.20
2019-03-30T00:07:54.303Z,9.10
2019-03-30T00:10:22.717Z,9.20
2019-03-30T00:12:51.142Z,9.20
2019-03-30T00:15:19.541Z,9.20
2019-03-30T00:17:51.047Z,9.20
2019-03-30T00:20:19.476Z,9.20
2019-03-30T00:22:47.884Z,9.20
2019-03-30T00:25:16.312Z,9.20
2019-03-30T00:27:44.712Z,9.20
2019-03-30T00:30:13.178Z,9.00
2019-03-30T00:32:41.579Z,8.90
2019-03-30T00:35:10.066Z,8.90
2019-03-30T00:37:38.468Z,9.00
2019-03-30T00:40:07.716Z,9.10
2019-03-30T00:42:36.127Z,9.00
2019-03-30T00:45:07.899Z,8.90
2019-03-30T00:47:36.303Z,8.80
2019-03-30T00:50:05.456Z,8.70
2019-03-30T00:52:33.857Z,8.70
2019-03-30T00:55:02.263Z,8.60
2019-03-30T00:57:30.681Z,8.60
2019-03-30T00:59:59.099Z,8.60
2019-03-30T01:02:27.512Z,8.40
2019-03-30T01:04:55.927Z,8.20
2019-03-30T01:07:24.346Z,8.20
2019-03-30T01:09:52.770Z,8.20
2019-03-30T01:12:21.168Z,8.20
2019-03-30T01:14:52.459Z,8.20
2019-03-30T01:17:20.873Z,8.20
2019-03-30T01:20:01.892Z,8.10
2019-03-30T01:22:19.422Z,8.10
2019-03-30T01:24:47.823Z,8.00
2019-03-30T01:27:16.303Z,8.00
2019-03-30T01:29:44.728Z,8.00
2019-03-30T01:32:13.120Z,8.00
2019-03-30T01:34:41.565Z,8.10
2019-03-30T01:37:09.964Z,8.10
2019-03-30T01:39:38.406Z,8.10
2019-03-30T01:42:06.825Z,8.00
2019-03-30T01:44:35.248Z,8.00
2019-03-30T01:47:03.648Z,8.00
2019-03-30T01:49:32.059Z,7.90
2019-03-30T01:52:00.484Z,7.80
2019-03-30T01:54:28.928Z,7.70
2019-03-30T01:56:57.312Z,7.60
2019-03-30T01:59:25.727Z,7.60
2019-03-30T02:01:54.120Z,7.60
2019-03-30T02:04:22.554Z,7.60
2019-03-30T02:06:51.009Z,7.60
2019-03-30T02:09:19.703Z,7.60
2019-03-30T02:11:48.092Z,7.60
2019-03-30T02:14:16.528Z,7.60
2019-03-30T02:16:44.934Z,7.60
2019-03-30T02:19:13.353Z,7.60
2019-03-30T02:21:41.792Z,7.60
2019-03-30T02:24:10.250Z,7.60
2019-03-30T02:26:38.677Z,7.60
2019-03-30T02:29:07.080Z,7.60
2019-03-30T02:31:35.518Z,7.50
2019-03-30T02:34:03.928Z,7.40
2019-03-30T02:36:32.351Z,7.40
2019-03-30T02:39:00.761Z,7.40
2019-03-30T02:41:29.178Z,7.50
2019-03-30T02:43:57.581Z,7.50
2019-03-30T02:46:26.031Z,7.40
2019-03-30T02:48:54.487Z,7.40
2019-03-30T02:51:22.915Z,7.40
2019-03-30T02:53:51.329Z,7.30
2019-03-30T02:56:19.753Z,7.30
2019-03-30T02:58:48.169Z,7.30
2019-03-30T03:01:16.588Z,7.10
2019-03-30T03:03:44.998Z,7.00
2019-03-30T03:06:13.425Z,7.10
2019-03-30T03:08:41.845Z,7.00
2019-03-30T03:11:10.240Z,6.90
2019-03-30T03:13:38.659Z,6.90
2019-03-30T03:16:07.097Z,6.60
2019-03-30T03:18:35.521Z,6.60
2019-03-30T03:21:07.869Z,6.60
2019-03-30T03:23:34.081Z,6.50
2019-03-30T03:26:02.480Z,6.50
2019-03-30T03:28:32.543Z,6.60
2019-03-30T03:31:01.023Z,6.60
2019-03-30T03:33:29.585Z,6.70
2019-03-30T03:35:58.010Z,6.70
2019-03-30T03:38:26.405Z,6.70
2019-03-30T03:40:54.826Z,6.70
2019-03-30T03:43:23.237Z,6.70
2019-03-30T03:45:51.659Z,6.70
2019-03-30T03:48:20.065Z,6.60
2019-03-30T03:50:51.565Z,6.60
2019-03-30T03:53:21.939Z,6.60
2019-03-30T03:55:51.361Z,6.60
2019-03-30T03:58:22.852Z,6.60
2019-03-30T04:00:52.921Z,6.60
2019-03-30T04:03:23.390Z,6.60
2019-03-30T04:05:54.902Z,6.60
2019-03-30T04:08:26.248Z,6.60
2019-03-30T04:10:56.910Z,6.50
2019-03-30T04:13:30.299Z,6.50
2019-03-30T04:15:58.881Z,6.50
2019-03-30T04:18:27.456Z,6.40
2019-03-30T04:20:55.872Z,6.40
2019-03-30T04:23:24.276Z,6.20
2019-03-30T04:25:52.704Z,6.20
2019-03-30T04:28:21.109Z,6.10
2019-03-30T04:30:49.531Z,6.10
2019-03-30T04:33:17.943Z,6.10
2019-03-30T04:35:46.533Z,6.00
2019-03-30T04:38:14.957Z,5.90
2019-03-30T04:40:43.360Z,5.90
2019-03-30T04:43:11.764Z,5.80
2019-03-30T04:45:40.180Z,5.70
2019-03-30T04:48:08.573Z,5.70
2019-03-30T04:50:36.996Z,5.50
2019-03-30T04:53:05.408Z,5.50
2019-03-30T04:55:33.812Z,5.60
2019-03-30T04:58:02.234Z,5.70
2019-03-30T05:00:30.653Z,5.70
2019-03-30T05:02:59.069Z,5.70
2019-03-30T05:05:27.486Z,5.70
2019-03-30T05:07:55.880Z,5.80
2019-03-30T05:10:24.311Z,5.80
2019-03-30T05:12:52.730Z,5.80
2019-03-30T05:15:21.149Z,5.80
2019-03-30T05:17:49.550Z,5.80
2019-03-30T05:20:17.969Z,5.80
2019-03-30T05:22:46.387Z,5.70
2019-03-30T05:25:14.791Z,5.70
2019-03-30T05:27:43.217Z,5.70
2019-03-30T05:30:12.008Z,5.70
2019-03-30T05:32:41.912Z,5.80
2019-03-30T05:35:11.133Z,5.80
2019-03-30T05:37:39.547Z,5.90
2019-03-30T05:40:08.994Z,6.00
2019-03-30T05:42:37.412Z,6.10
2019-03-30T05:45:07.164Z,6.20
2019-03-30T05:47:35.571Z,6.30
2019-03-30T05:50:07.536Z,6.40
2019-03-30T05:52:35.967Z,6.50
2019-03-30T05:55:04.718Z,6.70
2019-03-30T05:57:33.180Z,6.70
2019-03-30T06:00:01.621Z,6.90
2019-03-30T06:02:30.065Z,7.00
2019-03-30T06:04:58.852Z,7.10
2019-03-30T06:07:27.385Z,7.30
2019-03-30T06:09:55.801Z,7.40
2019-03-30T06:12:24.224Z,7.50
2019-03-30T06:14:52.635Z,7.60
2019-03-30T06:17:21.069Z,7.80
2019-03-30T06:19:49.465Z,7.80
2019-03-30T06:22:17.902Z,8.00
2019-03-30T06:24:46.292Z,8.20
2019-03-30T06:27:14.717Z,8.10
2019-03-30T06:29:43.136Z,8.30
2019-03-30T06:32:11.573Z,8.50
2019-03-30T06:34:39.977Z,8.70
2019-03-30T06:37:08.393Z,8.80
2019-03-30T06:39:37.139Z,8.90
2019-03-30T06:42:05.813Z,8.90
2019-03-30T06:44:34.228Z,9.30
2019-03-30T06:47:02.722Z,9.40
2019-03-30T06:49:31.118Z,9.60
2019-03-30T06:51:59.547Z,9.70
2019-03-30T06:54:27.959Z,9.90
2019-03-30T06:56:56.409Z,10.20
2019-03-30T06:59:24.829Z,10.50
2019-03-30T07:01:53.262Z,10.60
2019-03-30T07:04:21.677Z,10.70
2019-03-30T07:06:51.865Z,10.90
2019-03-30T07:09:22.294Z,11.10
2019-03-30T07:11:51.558Z,11.30
2019-03-30T07:14:21.970Z,11.30
2019-03-30T07:16:53.669Z,10.90
2019-03-30T07:19:24.715Z,11.00
2019-03-30T07:21:53.135Z,11.30
2019-03-30T07:24:21.549Z,11.40
2019-03-30T07:26:49.980Z,11.70
2019-03-30T07:29:18.385Z,11.80
2019-03-30T07:31:46.812Z,11.90
2019-03-30T07:34:15.226Z,12.00
2019-03-30T07:36:43.651Z,12.20
2019-03-30T07:39:12.062Z,12.40
2019-03-30T07:41:40.477Z,12.40
2019-03-30T07:44:08.906Z,12.60
2019-03-30T07:46:37.332Z,12.90
2019-03-30T07:49:05.768Z,13.10
2019-03-30T07:51:34.192Z,13.30
2019-03-30T07:54:02.630Z,13.60
2019-03-30T07:56:31.092Z,13.90
2019-03-30T07:58:59.524Z,14.10
2019-03-30T08:01:27.976Z,14.20
2019-03-30T08:03:56.389Z,14.00
2019-03-30T08:06:24.825Z,14.10
2019-03-30T08:08:53.236Z,14.30
2019-03-30T08:11:21.668Z,14.50
2019-03-30T08:13:50.146Z,14.80
2019-03-30T08:16:18.553Z,15.10
2019-03-30T08:18:46.981Z,15.20
2019-03-30T08:21:15.412Z,15.40
2019-03-30T08:23:43.816Z,15.80
2019-03-30T08:26:12.248Z,15.80
2019-03-30T08:28:40.743Z,16.00
2019-03-30T08:31:09.210Z,16.20
2019-03-30T08:33:37.696Z,16.30
2019-03-30T08:36:06.160Z,16.40
2019-03-30T08:38:34.603Z,16.50
2019-03-30T08:41:03.049Z,16.70
2019-03-30T08:43:31.507Z,16.60
2019-03-30T08:46:00.363Z,16.60
2019-03-30T08:48:28.816Z,16.70
2019-03-30T08:50:57.244Z,16.90
2019-03-30T08:53:25.672Z,16.90
2019-03-30T08:55:54.086Z,16.80
2019-03-30T08:58:22.522Z,16.70
2019-03-30T09:00:50.928Z,16.60
2019-03-30T09:03:19.364Z,17.10
2019-03-30T09:05:47.794Z,17.40
2019-03-30T09:08:16.214Z,17.70
2019-03-30T09:10:44.616Z,17.80
2019-03-30T09:13:13.044Z,18.10
2019-03-30T09:15:41.479Z,18.20
2019-03-30T09:18:09.902Z,18.50
2019-03-30T09:20:38.376Z,18.70
2019-03-30T09:23:06.974Z,18.90
2019-03-30T09:25:35.416Z,18.90
2019-03-30T09:28:03.984Z,19.30
2019-03-30T09:30:32.396Z,19.50
2019-03-30T09:33:00.841Z,19.50
2019-03-30T09:35:29.359Z,19.60
2019-03-30T09:37:57.953Z,19.90
2019-03-30T09:40:26.479Z,20.20
2019-03-30T09:42:54.899Z,20.40
2019-03-30T09:45:23.388Z,20.80
2019-03-30T09:47:51.816Z,21.50
2019-03-30T09:50:20.230Z,22.30
2019-03-30T09:52:48.852Z,22.40
2019-03-30T09:55:17.261Z,23.00
2019-03-30T09:57:45.753Z,23.40
2019-03-30T10:00:14.523Z,23.90
2019-03-30T10:02:42.953Z,23.90
2019-03-30T10:05:11.874Z,24.20
2019-03-30T10:07:40.303Z,24.90
2019-03-30T10:10:08.872Z,25.60
2019-03-30T10:12:37.288Z,26.10
2019-03-30T10:15:07.157Z,26.30
2019-03-30T10:17:35.588Z,26.90
2019-03-30T10:20:06.333Z,26.80
2019-03-30T10:22:35.128Z,27.00
2019-03-30T10:25:04.565Z,27.00
2019-03-30T10:27:33.004Z,27.00
2019-03-30T10:30:01.421Z,26.60
2019-03-30T10:32:30.180Z,27.00
2019-03-30T10:34:58.590Z,27.00
2019-03-30T10:37:27.372Z,27.10
2019-03-30T10:39:55.777Z,26.90
2019-03-30T10:42:24.356Z,26.90
2019-03-30T10:44:52.815Z,26.70
2019-03-30T10:47:21.297Z,26.70
2019-03-30T10:49:49.721Z,27.00
2019-03-30T10:52:18.166Z,27.60
2019-03-30T10:54:52.813Z,28.00
2019-03-30T10:57:16.913Z,28.30
2019-03-30T10:59:45.370Z,28.10
2019-03-30T11:02:13.813Z,28.20
2019-03-30T11:04:42.299Z,29.20
2019-03-30T11:07:10.743Z,29.30
2019-03-30T11:09:39.170Z,29.20
2019-03-30T11:12:07.569Z,28.90
2019-03-30T11:14:36.032Z,28.30
2019-03-30T11:17:04.433Z,27.60
2019-03-30T11:19:32.851Z,26.90
2019-03-30T11:22:03.273Z,26.80
2019-03-30T11:24:31.483Z,26.70
2019-03-30T11:26:59.885Z,27.30
2019-03-30T11:29:28.307Z,27.30
2019-03-30T11:31:56.720Z,27.60
2019-03-30T11:34:25.164Z,27.80
2019-03-30T11:36:53.614Z,27.90
2019-03-30T11:39:22.082Z,27.70
2019-03-30T11:41:50.498Z,27.70
2019-03-30T11:44:18.924Z,27.80
2019-03-30T11:46:47.393Z,27.80
2019-03-30T11:49:15.817Z,28.00
2019-03-30T11:51:44.224Z,28.60
2019-03-30T11:54:12.665Z,28.80
2019-03-30T11:56:41.072Z,29.20
2019-03-30T11:59:09.507Z,29.50
2019-03-30T12:01:37.918Z,29.30
2019-03-30T12:04:06.345Z,29.50
2019-03-30T12:06:34.786Z,29.70
2019-03-30T12:09:04.362Z,30.50
2019-03-30T12:11:32.771Z,30.70
2019-03-30T12:14:01.194Z,31.50
2019-03-30T12:16:29.605Z,30.80
2019-03-30T12:18:58.217Z,30.40
2019-03-30T12:21:26.788Z,29.80
2019-03-30T12:23:55.216Z,30.00
2019-03-30T12:26:32.939Z,29.80
2019-03-30T12:28:58.668Z,30.30
2019-03-30T12:31:27.256Z,30.80
2019-03-30T12:33:55.776Z,30.60
2019-03-30T12:36:24.168Z,30.30
2019-03-30T12:38:52.661Z,30.30
2019-03-30T12:41:21.072Z,29.50
2019-03-30T12:43:49.496Z,29.40
2019-03-30T12:46:17.900Z,29.60
2019-03-30T12:48:46.342Z,29.40
2019-03-30T12:51:14.770Z,29.10
2019-03-30T12:53:49.924Z,28.50
2019-03-30T12:56:13.402Z,27.80
2019-03-30T12:58:41.830Z,26.70
2019-03-30T13:01:10.472Z,26.30
2019-03-30T13:03:38.926Z,25.90
2019-03-30T13:06:07.332Z,25.80
2019-03-30T13:08:35.757Z,25.30
2019-03-30T13:11:04.249Z,24.80
2019-03-30T13:13:53.566Z,24.10
2019-03-30T13:16:26.948Z,23.60
2019-03-30T13:18:55.422Z,23.40
2019-03-30T13:21:23.838Z,23.80
2019-03-30T13:23:52.276Z,24.40
2019-03-30T13:26:20.687Z,24.50
2019-03-30T13:28:49.109Z,24.10
2019-03-30T13:31:17.560Z,24.00
2019-03-30T13:33:46.339Z,24.00
2019-03-30T13:36:15.191Z,24.30
2019-03-30T13:38:43.616Z,24.00
2019-03-30T13:41:14.112Z,23.90
2019-03-30T13:43:42.184Z,23.70
2019-03-30T13:46:10.580Z,23.70
2019-03-30T13:48:39.001Z,24.00
2019-03-30T13:51:07.417Z,23.80
2019-03-30T13:53:35.824Z,23.80
2019-03-30T13:56:16.472Z,23.90
2019-03-30T13:58:36.551Z,24.20
2019-03-30T14:01:04.624Z,24.70
2019-03-30T14:03:33.028Z,25.10
2019-03-30T14:06:01.454Z,25.60
2019-03-30T14:08:29.860Z,25.40
2019-03-30T14:10:58.287Z,25.10
2019-03-30T14:13:26.730Z,25.00
2019-03-30T14:15:55.149Z,24.60
2019-03-30T14:18:23.568Z,23.90
2019-03-30T14:20:52.002Z,23.50
2019-03-30T14:23:20.402Z,23.60
2019-03-30T14:25:48.861Z,23.70
2019-03-30T14:28:17.253Z,23.50
2019-03-30T14:30:45.698Z,23.60
2019-03-30T14:33:14.104Z,23.60
2019-03-30T14:35:43.868Z,23.50
2019-03-30T14:38:12.356Z,24.00
2019-03-30T14:40:40.776Z,24.10
2019-03-30T14:43:09.181Z,24.20
2019-03-30T14:45:37.612Z,24.50
2019-03-30T14:48:06.026Z,24.50
2019-03-30T14:50:34.465Z,24.20
2019-03-30T14:53:02.905Z,23.30
2019-03-30T14:55:31.406Z,22.80
2019-03-30T14:57:59.969Z,22.30
2019-03-30T15:00:28.497Z,22.30
2019-03-30T15:02:57.104Z,22.20
2019-03-30T15:05:25.596Z,22.20
2019-03-30T15:07:54.013Z,22.40
2019-03-30T15:10:22.445Z,22.40
2019-03-30T15:12:50.856Z,22.40
2019-03-30T15:15:19.277Z,22.50
2019-03-30T15:17:47.685Z,23.30
2019-03-30T15:20:16.285Z,24.00
2019-03-30T15:22:44.713Z,24.80
2019-03-30T15:25:13.575Z,25.00
2019-03-30T15:27:41.976Z,23.70
2019-03-30T15:30:10.844Z,23.00
2019-03-30T15:32:39.251Z,22.60
2019-03-30T15:35:08.910Z,22.50
2019-03-30T15:37:37.321Z,22.30
2019-03-30T15:40:06.579Z,22.10
2019-03-30T15:42:35.156Z,21.80
2019-03-30T15:45:05.419Z,21.50
2019-03-30T15:47:33.840Z,21.30
2019-03-30T15:50:02.237Z,21.40
2019-03-30T15:52:30.664Z,21.60
2019-03-30T15:54:59.074Z,21.50
2019-03-30T15:57:27.530Z,21.60
2019-03-30T15:59:56.624Z,21.70
2019-03-30T16:02:25.049Z,21.60
2019-03-30T16:04:53.473Z,21.10
2019-03-30T16:07:21.889Z,20.90
2019-03-30T16:09:50.466Z,20.90
2019-03-30T16:12:18.889Z,21.10
2019-03-30T16:14:47.295Z,21.10
2019-03-30T16:17:15.728Z,21.00
2019-03-30T16:19:44.165Z,20.90
2019-03-30T16:22:12.775Z,20.80
2019-03-30T16:24:41.180Z,20.90
2019-03-30T16:27:09.600Z,21.00
2019-03-30T16:29:38.016Z,21.10
2019-03-30T16:32:06.446Z,21.00
2019-03-30T16:34:34.850Z,20.60
2019-03-30T16:37:03.343Z,20.50
2019-03-30T16:39:34.693Z,20.60
2019-03-30T16:42:01.980Z,20.60
2019-03-30T16:44:30.399Z,20.40
2019-03-30T16:46:58.837Z,20.20
2019-03-30T16:49:27.237Z,20.30
2019-03-30T16:51:55.657Z,20.40
2019-03-30T16:54:24.142Z,20.50
2019-03-30T16:56:52.646Z,20.50
2019-03-30T16:59:21.064Z,20.40
2019-03-30T17:01:49.487Z,20.40
2019-03-30T17:04:17.893Z,20.50
2019-03-30T17:06:46.320Z,20.50
2019-03-30T17:09:14.724Z,20.50
2019-03-30T17:11:43.142Z,20.60
2019-03-30T17:14:11.544Z,20.60
2019-03-30T17:16:40.046Z,20.50
2019-03-30T17:19:08.464Z,20.50
2019-03-30T17:21:36.888Z,20.40
2019-03-30T17:24:06.200Z,20.40
2019-03-30T17:26:34.628Z,20.20
2019-03-30T17:29:03.050Z,20.10
2019-03-30T17:31:31.461Z,19.90
2019-03-30T17:33:59.884Z,19.90
2019-03-30T17:36:28.332Z,19.80
2019-03-30T17:38:56.779Z,19.70
2019-03-30T17:41:25.249Z,19.70
2019-03-30T17:43:53.672Z,19.50
2019-03-30T17:46:22.074Z,19.30
2019-03-30T17:48:50.535Z,19.30
2019-03-30T17:51:19.005Z,19.30
2019-03-30T17:53:47.425Z,19.30
2019-03-30T17:56:15.848Z,19.30
2019-03-30T17:58:44.264Z,19.40
2019-03-30T18:01:15.566Z,19.40
2019-03-30T18:03:42.845Z,19.30
2019-03-30T18:06:11.289Z,19.30
2019-03-30T18:08:39.909Z,19.10
2019-03-30T18:11:08.307Z,19.00
2019-03-30T18:13:37.071Z,18.80
2019-03-30T18:16:05.624Z,18.70
2019-03-30T18:18:34.049Z,18.50
2019-03-30T18:21:02.525Z,18.50
2019-03-30T18:23:30.967Z,18.60
2019-03-30T18:25:59.380Z,18.50
2019-03-30T18:28:27.846Z,18.40
2019-03-30T18:30:56.305Z,18.40
2019-03-30T18:33:24.894Z,18.20
2019-03-30T18:35:53.442Z,18.10
2019-03-30T18:38:22.600Z,18.00
2019-03-30T18:40:51.015Z,17.90
2019-03-30T18:43:19.592Z,17.70
2019-03-30T18:45:48.008Z,17.70
2019-03-30T18:48:17.788Z,17.60
2019-03-30T18:50:46.845Z,17.50
2019-03-30T18:53:16.317Z,17.60
2019-03-30T18:55:44.777Z,17.50
2019-03-30T18:58:14.806Z,17.40
2019-03-30T19:00:43.222Z,17.30
2019-03-30T19:03:11.648Z,17.30
2019-03-30T19:05:40.058Z,17.20
2019-03-30T19:08:08.545Z,17.10
2019-03-30T19:10:36.995Z,17.00
2019-03-30T19:13:05.520Z,17.00
2019-03-30T19:15:33.916Z,17.00
2019-03-30T19:18:02.342Z,16.90
2019-03-30T19:20:31.024Z,16.80
2019-03-30T19:22:59.506Z,16.80
2019-03-30T19:25:29.663Z,16.70
2019-03-30T19:27:58.072Z,16.80
2019-03-30T19:30:26.633Z,16.80
2019-03-30T19:32:55.047Z,16.60
2019-03-30T19:35:25.012Z,16.40
2019-03-30T19:37:53.423Z,16.40
2019-03-30T19:40:21.860Z,16.50
2019-03-30T19:42:50.299Z,16.40
2019-03-30T19:45:18.731Z,16.40
2019-03-30T19:47:47.155Z,16.40
2019-03-30T19:50:15.636Z,16.30
2019-03-30T19:52:44.041Z,16.30
2019-03-30T19:55:12.472Z,16.20
2019-03-30T19:57:40.896Z,16.00
2019-03-30T20:00:12.420Z,16.00
2019-03-30T20:02:40.905Z,16.00
2019-03-30T20:05:10.959Z,15.70
2019-03-30T20:07:39.425Z,15.50
2019-03-30T20:10:08.309Z,15.40
2019-03-30T20:12:37.872Z,15.40
2019-03-30T20:15:07.844Z,15.50
2019-03-30T20:17:36.253Z,15.40
2019-03-30T20:20:05.828Z,15.20
2019-03-30T20:22:34.273Z,15.20
2019-03-30T20:25:02.701Z,15.20
2019-03-30T20:27:31.138Z,15.20
2019-03-30T20:29:59.583Z,15.10
2019-03-30T20:32:28.010Z,15.00
2019-03-30T20:34:56.443Z,15.00
2019-03-30T20:37:24.871Z,15.00
2019-03-30T20:39:53.292Z,14.80
2019-03-30T20:42:21.822Z,14.70
2019-03-30T20:44:50.263Z,14.50
2019-03-30T20:47:18.707Z,14.40
2019-03-30T20:49:47.297Z,14.30
2019-03-30T20:52:15.719Z,14.00
2019-03-30T20:54:44.140Z,13.80
2019-03-30T20:57:12.553Z,13.90
2019-03-30T20:59:41.005Z,13.90
2019-03-30T21:02:09.402Z,13.80
2019-03-30T21:04:37.824Z,13.90
2019-03-30T21:07:06.287Z,13.90
2019-03-30T21:09:34.716Z,13.90
2019-03-30T21:12:03.126Z,13.90
2019-03-30T21:14:31.622Z,14.00
2019-03-30T21:17:00.042Z,13.80
2019-03-30T21:19:28.472Z,13.60
2019-03-30T21:21:56.886Z,13.80
2019-03-30T21:24:25.309Z,13.60
2019-03-30T21:26:53.737Z,13.40
2019-03-30T21:29:22.126Z,13.20
2019-03-30T21:31:50.546Z,13.10
2019-03-30T21:34:18.952Z,13.00
2019-03-30T21:36:47.385Z,13.10
2019-03-30T21:39:15.788Z,13.00
2019-03-30T21:41:44.221Z,12.90
2019-03-30T21:44:21.926Z,12.90
2019-03-30T21:46:42.796Z,12.80
2019-03-30T21:49:11.217Z,12.90
2019-03-30T21:51:39.646Z,12.90
2019-03-30T21:54:08.061Z,12.80
2019-03-30T21:56:36.485Z,12.70
2019-03-30T21:59:04.972Z,12.60
2019-03-30T22:01:33.396Z,12.70
2019-03-30T22:04:01.808Z,12.60
2019-03-30T22:06:30.396Z,12.50
2019-03-30T22:08:59.860Z,12.50
2019-03-30T22:11:28.274Z,12.40
2019-03-30T22:13:56.685Z,12.40
2019-03-30T22:16:25.112Z,12.40
2019-03-30T22:18:53.516Z,12.20
2019-03-30T22:21:21.946Z,12.00
2019-03-30T22:23:50.354Z,11.90
2019-03-30T22:26:18.784Z,12.10
2019-03-30T22:28:47.201Z,12.50
2019-03-30T22:31:15.619Z,12.60
2019-03-30T22:33:44.024Z,12.70
2019-03-30T22:36:12.562Z,12.70
2019-03-30T22:38:40.960Z,12.50
2019-03-30T22:41:09.382Z,12.20
2019-03-30T22:43:37.802Z,12.00
2019-03-30T22:46:07.756Z,12.00
2019-03-30T22:48:36.413Z,11.90
2019-03-30T22:51:04.860Z,12.00
2019-03-30T22:53:33.273Z,12.20
2019-03-30T22:56:01.683Z,12.20
2019-03-30T22:58:30.182Z,12.00
2019-03-30T23:01:06.370Z,11.90
2019-03-30T23:03:34.859Z,12.00
2019-03-30T23:06:03.274Z,12.10
2019-03-30T23:08:31.807Z,12.10
2019-03-30T23:11:00.217Z,11.70
2019-03-30T23:13:48.008Z,11.50
2019-03-30T23:16:16.496Z,11.60
2019-03-30T23:18:45.458Z,11.70
2019-03-30T23:21:14.100Z,11.80
2019-03-30T23:23:42.528Z,11.90
2019-03-30T23:26:10.957Z,12.00
2019-03-30T23:28:39.373Z,11.90
2019-03-30T23:31:07.800Z,11.80
2019-03-30T23:33:36.236Z,11.70
2019-03-30T23:36:04.659Z,11.30
2019-03-30T23:38:33.090Z,11.10
2019-03-30T23:41:01.487Z,10.90
2019-03-30T23:43:30.000Z,10.90
2019-03-30T23:45:58.525Z,10.80
2019-03-30T23:48:26.968Z,10.70
2019-03-30T23:50:55.443Z,10.60
2019-03-30T23:53:23.991Z,10.50
2019-03-30T23:55:52.437Z,10.50
2019-03-30T23:58:20.864Z,10.60
